createdAt,value
2022-11-27T00:01:42.533Z,13.04
2022-11-27T00:04:14.830Z,13.04
2022-11-27T00:06:43.516Z,13.05
2022-11-27T00:09:16.013Z,13.07
2022-11-27T00:11:45.074Z,13.10
2022-11-27T00:14:14.601Z,13.11
2022-11-27T00:16:42.859Z,13.13
2022-11-27T00:19:11.701Z,13.17
2022-11-27T00:21:40.065Z,13.19
2022-11-27T00:24:09.264Z,13.20
2022-11-27T00:26:38.895Z,13.21
2022-11-27T00:29:07.797Z,13.19
2022-11-27T00:31:37.711Z,13.17
2022-11-27T00:34:09.111Z,13.20
2022-11-27T00:36:38.022Z,13.20
2022-11-27T00:39:06.400Z,13.17
2022-11-27T00:41:34.595Z,13.16
2022-11-27T00:44:04.144Z,13.14
2022-11-27T00:46:33.971Z,13.12
2022-11-27T00:49:04.937Z,13.10
2022-11-27T00:51:33.033Z,13.10
2022-11-27T00:54:01.049Z,13.10
2022-11-27T00:56:32.536Z,13.10
2022-11-27T00:59:24.633Z,13.11
2022-11-27T01:01:51.957Z,13.11
2022-11-27T01:04:20.227Z,13.11
2022-11-27T01:06:48.279Z,13.11
2022-11-27T01:09:17.399Z,13.11
2022-11-27T01:11:45.503Z,13.13
2022-11-27T01:14:16.295Z,13.13
2022-11-27T01:16:44.551Z,13.13
2022-11-27T01:19:15.357Z,13.13
2022-11-27T01:21:43.826Z,13.13
2022-11-27T01:24:14.559Z,13.11
2022-11-27T01:26:42.897Z,13.13
2022-11-27T01:29:11.393Z,13.13
2022-11-27T01:31:39.520Z,13.14
2022-11-27T01:34:09.267Z,13.13
2022-11-27T01:36:38.878Z,13.13
2022-11-27T01:39:06.922Z,13.11
2022-11-27T01:41:36.895Z,13.10
2022-11-27T01:44:25.982Z,13.09
2022-11-27T01:46:56.509Z,13.03
2022-11-27T01:49:32.302Z,13.01
2022-11-27T01:52:10.344Z,12.96
2022-11-27T01:54:43.382Z,12.93
2022-11-27T01:57:16.787Z,12.90
2022-11-27T01:59:46.792Z,12.91
2022-11-27T02:02:15.119Z,12.89
2022-11-27T02:04:43.709Z,12.89
2022-11-27T02:07:13.358Z,12.91
2022-11-27T02:09:41.845Z,12.89
2022-11-27T02:12:16.885Z,12.87
2022-11-27T02:14:55.977Z,12.85
2022-11-27T02:17:31.421Z,12.85
2022-11-27T02:20:14.694Z,12.84
2022-11-27T02:23:00.197Z,12.77
2022-11-27T02:25:35.789Z,12.72
2022-11-27T02:28:23.880Z,12.69
2022-11-27T02:30:58.120Z,12.66
2022-11-27T02:33:27.070Z,12.64
2022-11-27T02:36:03.510Z,12.63
2022-11-27T02:38:38.919Z,12.64
2022-11-27T02:41:10.852Z,12.64
2022-11-27T02:43:42.096Z,12.63
2022-11-27T02:46:14.188Z,12.60
2022-11-27T02:48:46.977Z,12.58
2022-11-27T02:51:17.196Z,12.58
2022-11-27T02:53:50.249Z,12.58
2022-11-27T02:56:22.313Z,12.60
2022-11-27T02:58:52.433Z,12.61
2022-11-27T03:01:24.311Z,12.61
2022-11-27T03:03:56.721Z,12.60
2022-11-27T03:06:30.661Z,12.60
2022-11-27T03:09:04.107Z,12.59
2022-11-27T03:11:32.224Z,12.60
2022-11-27T03:14:03.432Z,12.60
2022-11-27T03:16:40.418Z,12.61
2022-11-27T03:19:17.267Z,12.63
2022-11-27T03:21:48.894Z,12.63
2022-11-27T03:24:17.148Z,12.64
2022-11-27T03:26:45.575Z,12.65
2022-11-27T03:29:18.032Z,12.66
2022-11-27T03:31:47.667Z,12.66
2022-11-27T03:34:16.658Z,12.66
2022-11-27T03:36:44.815Z,12.66
2022-11-27T03:39:13.075Z,12.66
2022-11-27T03:41:47.241Z,12.63
2022-11-27T03:44:27.361Z,12.60
2022-11-27T03:47:09.026Z,12.59
2022-11-27T03:49:48.016Z,12.56
2022-11-27T03:52:25.712Z,12.54
2022-11-27T03:55:01.289Z,12.52
2022-11-27T03:57:35.163Z,12.49
2022-11-27T04:00:06.266Z,12.47
2022-11-27T04:02:42.827Z,12.44
2022-11-27T04:05:11.835Z,12.42
2022-11-27T04:07:40.505Z,12.39
2022-11-27T04:10:10.630Z,12.36
2022-11-27T04:12:40.805Z,12.34
2022-11-27T04:15:09.794Z,12.32
2022-11-27T04:17:38.011Z,12.30
2022-11-27T04:20:09.011Z,12.29
2022-11-27T04:22:37.043Z,12.26
2022-11-27T04:25:05.710Z,12.25
2022-11-27T04:27:33.888Z,12.24
2022-11-27T04:30:01.871Z,12.24
2022-11-27T04:32:29.933Z,12.23
2022-11-27T04:34:57.963Z,12.22
2022-11-27T04:37:27.414Z,12.20
2022-11-27T04:39:55.392Z,12.21
2022-11-27T04:42:23.369Z,12.19
2022-11-27T04:44:51.473Z,12.20
2022-11-27T04:47:19.604Z,12.19
2022-11-27T04:49:47.719Z,12.19
2022-11-27T04:52:16.024Z,12.19
2022-11-27T04:54:45.403Z,12.18
2022-11-27T04:57:13.560Z,12.18
2022-11-27T04:59:41.569Z,12.18
2022-11-27T05:02:09.641Z,12.17
2022-11-27T05:04:37.888Z,12.18
2022-11-27T05:07:17.653Z,12.19
2022-11-27T05:09:47.181Z,12.20
2022-11-27T05:12:15.272Z,12.20
2022-11-27T05:14:43.382Z,12.18
2022-11-27T05:17:11.599Z,12.17
2022-11-27T05:19:39.758Z,12.15
2022-11-27T05:22:07.795Z,12.13
2022-11-27T05:24:35.723Z,12.11
2022-11-27T05:27:05.428Z,12.09
2022-11-27T05:29:33.485Z,12.10
2022-11-27T05:32:01.524Z,12.10
2022-11-27T05:34:29.532Z,12.10
2022-11-27T05:36:57.525Z,12.09
2022-11-27T05:39:25.583Z,12.07
2022-11-27T05:41:53.640Z,12.06
2022-11-27T05:44:23.358Z,12.07
2022-11-27T05:46:51.394Z,12.07
2022-11-27T05:49:19.499Z,12.07
2022-11-27T05:51:51.407Z,12.04
2022-11-27T05:54:20.351Z,12.01
2022-11-27T05:56:48.526Z,11.97
2022-11-27T05:59:16.599Z,11.96
2022-11-27T06:01:46.432Z,11.95
2022-11-27T06:04:14.699Z,11.93
2022-11-27T06:06:42.855Z,11.90
2022-11-27T06:09:13.138Z,11.89
2022-11-27T06:11:42.280Z,11.87
2022-11-27T06:14:10.453Z,11.86
2022-11-27T06:16:38.823Z,11.83
2022-11-27T06:19:09.329Z,11.83
2022-11-27T06:21:37.413Z,11.82
2022-11-27T06:24:05.723Z,11.80
2022-11-27T06:26:34.580Z,11.79
2022-11-27T06:29:03.099Z,11.78
2022-11-27T06:31:33.451Z,11.77
2022-11-27T06:34:02.462Z,11.75
2022-11-27T06:36:33.560Z,11.74
2022-11-27T06:39:02.131Z,11.71
2022-11-27T06:41:30.555Z,11.68
2022-11-27T06:44:00.695Z,11.66
2022-11-27T06:46:29.954Z,11.62
2022-11-27T06:48:59.145Z,11.60
2022-11-27T06:51:28.597Z,11.58
2022-11-27T06:53:58.569Z,11.56
2022-11-27T06:56:28.748Z,11.55
2022-11-27T06:58:58.143Z,11.53
2022-11-27T07:01:28.009Z,11.50
2022-11-27T07:03:57.252Z,11.50
2022-11-27T07:06:26.965Z,11.47
2022-11-27T07:08:55.302Z,11.46
2022-11-27T07:11:31.935Z,11.43
2022-11-27T07:14:01.296Z,11.40
2022-11-27T07:16:31.821Z,11.38
2022-11-27T07:19:01.681Z,11.36
2022-11-27T07:21:31.400Z,11.34
2022-11-27T07:23:59.573Z,11.32
2022-11-27T07:26:30.813Z,11.30
2022-11-27T07:28:59.112Z,11.30
2022-11-27T07:31:30.260Z,11.29
2022-11-27T07:33:58.897Z,11.27
2022-11-27T07:36:28.945Z,11.24
2022-11-27T07:38:58.094Z,11.23
2022-11-27T07:41:32.163Z,11.20
2022-11-27T07:44:03.883Z,11.19
2022-11-27T07:46:31.871Z,11.17
2022-11-27T07:49:00.791Z,11.15
2022-11-27T07:51:29.153Z,11.12
2022-11-27T07:53:57.267Z,11.11
2022-11-27T07:56:25.265Z,11.08
2022-11-27T07:58:53.358Z,11.08
2022-11-27T08:01:22.992Z,11.08
2022-11-27T08:03:51.366Z,11.11
2022-11-27T08:06:21.827Z,11.12
2022-11-27T08:08:50.240Z,11.15
2022-11-27T08:11:20.637Z,11.17
2022-11-27T08:13:49.335Z,11.19
2022-11-27T08:16:18.092Z,11.20
2022-11-27T08:18:47.721Z,11.21
2022-11-27T08:21:23.398Z,11.25
2022-11-27T08:23:53.088Z,11.28
2022-11-27T08:26:22.175Z,11.30
2022-11-27T08:28:53.357Z,11.32
2022-11-27T08:31:21.943Z,11.33
2022-11-27T08:33:51.709Z,11.31
2022-11-27T08:36:19.898Z,11.29
2022-11-27T08:38:48.190Z,11.29
2022-11-27T08:41:16.360Z,11.27
2022-11-27T08:43:44.458Z,11.29
2022-11-27T08:46:12.953Z,11.31
2022-11-27T08:48:42.003Z,11.31
2022-11-27T08:51:13.674Z,11.35
2022-11-27T08:53:44.520Z,11.39
2022-11-27T08:56:16.775Z,11.42
2022-11-27T08:58:44.795Z,11.42
2022-11-27T09:01:15.965Z,11.44
2022-11-27T09:03:44.180Z,11.46
2022-11-27T09:06:16.937Z,11.47
2022-11-27T09:08:45.846Z,11.48
2022-11-27T09:11:15.017Z,11.51
2022-11-27T09:13:43.841Z,11.52
2022-11-27T09:16:13.713Z,11.56
2022-11-27T09:18:41.900Z,11.58
2022-11-27T09:21:12.040Z,11.59
2022-11-27T09:23:42.159Z,11.59
2022-11-27T09:26:11.832Z,11.59
2022-11-27T09:28:40.957Z,11.58
2022-11-27T09:31:11.634Z,11.58
2022-11-27T09:33:41.350Z,11.59
2022-11-27T09:36:12.150Z,11.59
2022-11-27T09:38:42.560Z,11.60
2022-11-27T09:41:28.175Z,11.63
2022-11-27T09:44:00.531Z,11.63
2022-11-27T09:46:38.368Z,11.63
2022-11-27T09:49:13.675Z,11.66
2022-11-27T09:51:45.393Z,11.68
2022-11-27T09:54:23.267Z,11.70
2022-11-27T09:56:54.942Z,11.71
2022-11-27T09:59:27.035Z,11.72
2022-11-27T10:01:55.328Z,11.76
2022-11-27T10:04:23.378Z,11.78
2022-11-27T10:07:06.507Z,11.80
2022-11-27T10:09:48.536Z,11.82
2022-11-27T10:12:24.134Z,11.83
2022-11-27T10:15:04.813Z,11.85
2022-11-27T10:17:37.445Z,11.89
2022-11-27T10:20:16.809Z,11.92
2022-11-27T10:22:55.347Z,11.96
2022-11-27T10:25:30.889Z,12.00
2022-11-27T10:28:07.263Z,12.03
2022-11-27T10:30:40.756Z,12.08
2022-11-27T10:33:18.284Z,12.12
2022-11-27T10:35:49.091Z,12.14
2022-11-27T10:38:21.483Z,12.15
2022-11-27T10:40:56.822Z,12.19
2022-11-27T10:43:26.614Z,12.21
2022-11-27T10:45:57.826Z,12.23
2022-11-27T10:48:27.884Z,12.25
2022-11-27T10:50:56.732Z,12.25
2022-11-27T10:53:30.351Z,12.25
2022-11-27T10:56:19.725Z,12.26
2022-11-27T10:58:56.128Z,12.27
2022-11-27T11:01:25.845Z,12.29
2022-11-27T11:04:24.272Z,12.31
2022-11-27T11:06:55.659Z,12.30
2022-11-27T11:09:26.020Z,12.33
2022-11-27T11:11:55.914Z,12.34
2022-11-27T11:14:25.510Z,12.36
2022-11-27T11:16:55.331Z,12.40
2022-11-27T11:19:25.779Z,12.38
2022-11-27T11:21:54.322Z,12.40
2022-11-27T11:24:27.757Z,12.44
2022-11-27T11:27:00.590Z,12.44
2022-11-27T11:29:33.923Z,12.46
2022-11-27T11:32:09.941Z,12.49
2022-11-27T11:34:44.113Z,12.54
2022-11-27T11:37:23.565Z,12.61
2022-11-27T11:39:57.726Z,12.66
2022-11-27T11:42:39.212Z,12.71
2022-11-27T11:45:17.922Z,12.74
2022-11-27T11:47:47.270Z,12.78
2022-11-27T11:50:18.489Z,12.75
2022-11-27T11:52:56.015Z,12.74
2022-11-27T11:55:29.214Z,12.74
2022-11-27T11:58:14.412Z,12.72
2022-11-27T12:01:11.907Z,12.71
2022-11-27T12:03:57.882Z,12.70
2022-11-27T12:06:38.036Z,12.73
2022-11-27T12:09:26.314Z,12.77
2022-11-27T12:12:05.507Z,12.79
2022-11-27T12:14:44.813Z,12.79
2022-11-27T12:17:30.091Z,12.79
2022-11-27T12:20:14.872Z,12.80
2022-11-27T12:23:18.783Z,12.83
2022-11-27T12:25:56.251Z,12.84
2022-11-27T12:28:39.885Z,12.84
2022-11-27T12:31:18.284Z,12.87
2022-11-27T12:34:02.148Z,12.89
2022-11-27T12:36:59.035Z,12.92
2022-11-27T12:39:34.353Z,12.95
2022-11-27T12:42:21.593Z,12.97
2022-11-27T12:44:58.067Z,13.00
2022-11-27T12:47:38.666Z,13.03
2022-11-27T12:50:15.983Z,13.04
2022-11-27T12:52:47.169Z,13.03
2022-11-27T12:55:20.764Z,13.04
2022-11-27T12:57:55.281Z,13.04
2022-11-27T13:00:26.328Z,13.01
2022-11-27T13:03:04.278Z,13.01
2022-11-27T13:05:36.679Z,12.99
2022-11-27T13:08:11.682Z,12.99
2022-11-27T13:10:43.021Z,13.01
2022-11-27T13:13:16.095Z,12.99
2022-11-27T13:15:48.595Z,12.98
2022-11-27T13:18:23.053Z,12.97
2022-11-27T13:20:53.051Z,12.94
2022-11-27T13:23:21.873Z,12.92
2022-11-27T13:25:55.404Z,12.89
2022-11-27T13:28:31.950Z,12.88
2022-11-27T13:31:01.663Z,12.85
2022-11-27T13:33:39.403Z,12.84
2022-11-27T13:36:19.029Z,12.82
2022-11-27T13:38:52.912Z,12.82
2022-11-27T13:41:31.535Z,12.81
2022-11-27T13:44:00.237Z,12.80
2022-11-27T13:46:31.408Z,12.78
2022-11-27T13:49:03.820Z,12.78
2022-11-27T13:51:34.403Z,12.75
2022-11-27T13:54:10.939Z,12.73
2022-11-27T13:56:39.669Z,12.71
2022-11-27T13:59:15.786Z,12.71
2022-11-27T14:01:55.479Z,12.70
2022-11-27T14:04:25.237Z,12.70
2022-11-27T14:06:58.677Z,12.70
2022-11-27T14:09:39.410Z,12.67
2022-11-27T14:12:34.501Z,12.65
2022-11-27T14:15:07.856Z,12.64
2022-11-27T14:17:39.227Z,12.63
2022-11-27T14:20:25.166Z,12.62
2022-11-27T14:23:11.068Z,12.60
2022-11-27T14:25:40.480Z,12.58
2022-11-27T14:28:16.134Z,12.55
2022-11-27T14:30:50.612Z,12.56
2022-11-27T14:33:20.483Z,12.56
2022-11-27T14:35:55.539Z,12.54
2022-11-27T14:38:24.433Z,12.53
2022-11-27T14:40:55.027Z,12.51
2022-11-27T14:46:20.650Z,12.45
2022-11-27T14:48:51.248Z,12.40
2022-11-27T14:51:23.489Z,12.36
2022-11-27T14:53:55.659Z,12.33
2022-11-27T14:56:35.988Z,12.28
2022-11-27T14:59:06.753Z,12.26
2022-11-27T15:01:36.909Z,12.23
2022-11-27T15:04:06.738Z,12.21
2022-11-27T15:06:40.392Z,12.18
2022-11-27T15:09:31.402Z,12.16
2022-11-27T15:12:05.026Z,12.13
2022-11-27T15:14:33.516Z,12.12
2022-11-27T15:17:01.665Z,12.13
2022-11-27T15:19:33.243Z,12.16
2022-11-27T15:22:03.374Z,12.20
2022-11-27T15:24:34.300Z,12.23
2022-11-27T15:27:17.756Z,12.25
2022-11-27T15:30:02.536Z,12.26
2022-11-27T15:32:51.316Z,12.24
2022-11-27T15:35:25.465Z,12.20
2022-11-27T15:37:57.134Z,12.16
2022-11-27T15:40:31.125Z,12.12
2022-11-27T15:42:59.312Z,12.07
2022-11-27T15:45:31.150Z,12.04
2022-11-27T15:48:01.402Z,11.99
2022-11-27T15:50:30.621Z,11.97
2022-11-27T15:53:01.155Z,11.93
2022-11-27T15:55:29.458Z,11.90
2022-11-27T15:57:57.926Z,11.85
2022-11-27T16:00:26.899Z,11.82
2022-11-27T16:02:55.085Z,11.77
2022-11-27T16:05:23.342Z,11.71
2022-11-27T16:07:55.193Z,11.65
2022-11-27T16:10:25.059Z,11.56
2022-11-27T16:12:55.432Z,11.47
2022-11-27T16:15:25.784Z,11.40
2022-11-27T16:17:58.101Z,11.31
2022-11-27T16:20:26.871Z,11.23
2022-11-27T16:22:55.352Z,11.16
2022-11-27T16:25:25.492Z,11.10
2022-11-27T16:27:58.018Z,11.01
2022-11-27T16:30:29.030Z,10.95
2022-11-27T16:32:57.176Z,10.89
2022-11-27T16:35:26.496Z,10.83
2022-11-27T16:37:54.543Z,10.77
2022-11-27T16:40:22.742Z,10.73
2022-11-27T16:42:52.360Z,10.68
2022-11-27T16:45:20.577Z,10.64
2022-11-27T16:47:48.780Z,10.60
2022-11-27T16:50:17.157Z,10.58
2022-11-27T16:52:47.075Z,10.57
2022-11-27T16:55:19.842Z,10.53
2022-11-27T16:57:48.387Z,10.49
2022-11-27T17:00:18.978Z,10.44
2022-11-27T17:02:47.252Z,10.40
2022-11-27T17:05:15.502Z,10.38
2022-11-27T17:07:43.681Z,10.36
2022-11-27T17:10:12.189Z,10.33
2022-11-27T17:12:40.556Z,10.31
2022-11-27T17:15:10.213Z,10.29
2022-11-27T17:17:41.403Z,10.28
2022-11-27T17:20:10.248Z,10.27
2022-11-27T17:22:38.311Z,10.26
2022-11-27T17:25:06.753Z,10.22
2022-11-27T17:27:35.258Z,10.19
2022-11-27T17:30:03.387Z,10.17
2022-11-27T17:32:31.438Z,10.18
2022-11-27T17:35:00.843Z,10.18
2022-11-27T17:37:28.835Z,10.16
2022-11-27T17:39:56.806Z,10.16
2022-11-27T17:42:24.849Z,10.15
2022-11-27T17:44:52.782Z,10.11
2022-11-27T17:47:20.706Z,10.09
2022-11-27T17:49:48.728Z,10.09
2022-11-27T17:52:18.177Z,10.08
2022-11-27T17:55:00.705Z,10.06
2022-11-27T18:01:12.074Z,10.02
2022-11-27T18:03:40.891Z,9.98
2022-11-27T18:06:09.639Z,9.96
2022-11-27T18:08:40.654Z,9.94
2022-11-27T18:11:09.489Z,9.93
2022-11-27T18:13:37.730Z,9.90
2022-11-27T18:16:08.362Z,9.90
2022-11-27T18:18:36.930Z,9.90
2022-11-27T18:21:08.744Z,9.87
2022-11-27T18:23:54.091Z,9.86
2022-11-27T18:26:45.323Z,9.85
2022-11-27T18:29:16.760Z,9.84
2022-11-27T18:31:48.067Z,9.84
2022-11-27T18:34:16.180Z,9.85
2022-11-27T18:36:45.214Z,9.85
2022-11-27T18:39:17.379Z,9.86
2022-11-27T18:41:45.386Z,9.87
2022-11-27T18:44:13.555Z,9.89
2022-11-27T18:46:41.649Z,9.93
2022-11-27T18:49:09.752Z,9.97
2022-11-27T18:51:37.969Z,10.02
2022-11-27T18:54:06.538Z,10.09
2022-11-27T18:56:37.271Z,10.15
2022-11-27T18:59:07.274Z,10.20
2022-11-27T19:01:41.911Z,10.27
2022-11-27T19:04:10.932Z,10.30
2022-11-27T19:06:42.312Z,10.35
2022-11-27T19:09:11.345Z,10.37
2022-11-27T19:11:41.298Z,10.40
2022-11-27T19:14:09.738Z,10.43
2022-11-27T19:16:43.937Z,10.49
2022-11-27T19:19:52.145Z,10.51
2022-11-27T19:22:01.819Z,10.53
2022-11-27T19:24:29.880Z,10.53
2022-11-27T19:26:59.387Z,10.52
2022-11-27T19:29:27.567Z,10.51
2022-11-27T19:32:01.159Z,10.49
2022-11-27T19:34:29.580Z,10.44
2022-11-27T19:36:58.488Z,10.38
2022-11-27T19:39:27.355Z,10.32
2022-11-27T19:41:57.841Z,10.28
2022-11-27T19:44:29.740Z,10.27
2022-11-27T19:46:57.715Z,10.28
2022-11-27T19:49:26.170Z,10.30
2022-11-27T19:51:54.145Z,10.30
2022-11-27T19:54:22.165Z,10.28
2022-11-27T19:56:50.372Z,10.23
2022-11-27T19:59:22.755Z,10.15
2022-11-27T20:01:55.037Z,10.07
2022-11-27T20:04:23.211Z,10.01
2022-11-27T20:06:53.313Z,9.95
2022-11-27T20:09:21.541Z,9.90
2022-11-27T20:11:49.755Z,9.84
2022-11-27T20:14:19.532Z,9.79
2022-11-27T20:16:47.689Z,9.75
2022-11-27T20:19:17.253Z,9.72
2022-11-27T20:21:45.772Z,9.67
2022-11-27T20:24:14.272Z,9.63
2022-11-27T20:26:43.303Z,9.57
2022-11-27T20:29:12.027Z,9.53
2022-11-27T20:31:44.651Z,9.50
2022-11-27T20:34:18.556Z,9.46
2022-11-27T20:36:46.555Z,9.42
2022-11-27T20:39:20.607Z,9.39
2022-11-27T20:41:50.257Z,9.35
2022-11-27T20:44:18.408Z,9.33
2022-11-27T20:46:46.582Z,9.32
2022-11-27T20:49:14.574Z,9.31
2022-11-27T20:51:44.439Z,9.29
2022-11-27T20:54:12.898Z,9.27
2022-11-27T20:56:43.285Z,9.25
2022-11-27T20:59:12.595Z,9.23
2022-11-27T21:01:42.249Z,9.22
2022-11-27T21:04:18.276Z,9.20
2022-11-27T21:06:47.771Z,9.18
2022-11-27T21:09:15.852Z,9.18
2022-11-27T21:11:44.967Z,9.15
2022-11-27T21:14:14.988Z,9.15
2022-11-27T21:16:44.981Z,9.13
2022-11-27T21:19:16.299Z,9.11
2022-11-27T21:21:44.443Z,9.10
2022-11-27T21:24:14.446Z,9.09
2022-11-27T21:26:43.204Z,9.08
2022-11-27T21:29:12.317Z,9.07
2022-11-27T21:31:46.122Z,9.06
2022-11-27T21:34:17.528Z,9.05
2022-11-27T21:36:45.660Z,9.05
2022-11-27T21:39:20.519Z,9.05
2022-11-27T21:41:49.560Z,9.05
2022-11-27T21:44:20.047Z,9.05
2022-11-27T21:46:48.601Z,9.07
2022-11-27T21:49:18.627Z,9.08
2022-11-27T21:51:47.213Z,9.08
2022-11-27T21:54:17.723Z,9.06
2022-11-27T21:56:45.870Z,9.05
2022-11-27T21:59:16.467Z,9.06
2022-11-27T22:01:46.411Z,9.03
2022-11-27T22:04:14.425Z,9.05
2022-11-27T22:06:45.150Z,9.02
2022-11-27T22:09:15.803Z,9.04
2022-11-27T22:11:47.124Z,9.06
2022-11-27T22:14:16.643Z,9.11
2022-11-27T22:16:46.648Z,9.17
2022-11-27T22:19:15.457Z,9.17
2022-11-27T22:21:43.983Z,9.16
2022-11-27T22:24:16.812Z,9.12
2022-11-27T22:26:48.534Z,9.10
2022-11-27T22:29:16.946Z,9.08
2022-11-27T22:31:44.989Z,9.08
2022-11-27T22:34:12.951Z,9.06
2022-11-27T22:36:44.178Z,9.03
2022-11-27T22:39:12.189Z,9.01
2022-11-27T22:41:41.733Z,9.00
2022-11-27T22:44:14.870Z,8.96
2022-11-27T22:46:43.491Z,8.98
2022-11-27T22:49:17.488Z,9.04
2022-11-27T22:51:46.424Z,9.07
2022-11-27T22:54:17.178Z,9.08
2022-11-27T22:56:46.743Z,9.06
2022-11-27T22:59:34.154Z,9.03
2022-11-27T23:02:03.143Z,9.01
2022-11-27T23:04:31.754Z,8.98
2022-11-27T23:06:59.951Z,8.96
2022-11-27T23:09:28.335Z,8.91
2022-11-27T23:11:57.015Z,8.89
2022-11-27T23:14:27.324Z,8.86
2022-11-27T23:16:55.402Z,8.84
2022-11-27T23:19:23.462Z,8.82
2022-11-27T23:21:51.412Z,8.80
2022-11-27T23:24:20.065Z,8.80
2022-11-27T23:26:48.397Z,8.78
2022-11-27T23:29:16.430Z,8.78
2022-11-27T23:31:45.998Z,8.76
2022-11-27T23:34:16.204Z,8.77
2022-11-27T23:36:44.684Z,8.77
2022-11-27T23:39:14.763Z,8.76
2022-11-27T23:41:43.574Z,8.75
2022-11-27T23:44:12.118Z,8.75
2022-11-27T23:46:40.673Z,8.73
2022-11-27T23:49:10.034Z,8.73
2022-11-27T23:51:38.123Z,8.73
2022-11-27T23:54:09.704Z,8.77
2022-11-27T23:56:39.120Z,8.78
2022-11-27T23:59:07.691Z,8.77
